地図

経路データ

SID SEASON NUMBER BASIN SUBBASIN NAME ISO_TIME NATURE LAT LON WMO_WIND WMO_PRES WMO_AGENCY TRACK_TYPE DIST2LAND LANDFALL IFLAG USA_AGENCY USA_ATCF_ID USA_LAT USA_LON USA_RECORD USA_STATUS USA_WIND USA_PRES USA_SSHS USA_R34_NE USA_R34_SE USA_R34_SW USA_R34_NW USA_R50_NE USA_R50_SE USA_R50_SW USA_R50_NW USA_R64_NE USA_R64_SE USA_R64_SW USA_R64_NW USA_POCI USA_ROCI USA_RMW USA_EYE TOKYO_LAT TOKYO_LON TOKYO_GRADE TOKYO_WIND TOKYO_PRES TOKYO_R50_DIR TOKYO_R50_LONG TOKYO_R50_SHORT TOKYO_R30_DIR TOKYO_R30_LONG TOKYO_R30_SHORT TOKYO_LAND CMA_LAT CMA_LON CMA_CAT CMA_WIND CMA_PRES HKO_LAT HKO_LON HKO_CAT HKO_WIND HKO_PRES NEWDELHI_LAT NEWDELHI_LON NEWDELHI_GRADE NEWDELHI_WIND NEWDELHI_PRES NEWDELHI_CI NEWDELHI_DP NEWDELHI_POCI REUNION_LAT REUNION_LON REUNION_TYPE REUNION_WIND REUNION_PRES REUNION_TNUM REUNION_CI REUNION_RMW REUNION_R34_NE REUNION_R34_SE REUNION_R34_SW REUNION_R34_NW REUNION_R50_NE REUNION_R50_SE REUNION_R50_SW REUNION_R50_NW REUNION_R64_NE REUNION_R64_SE REUNION_R64_SW REUNION_R64_NW BOM_LAT BOM_LON BOM_TYPE BOM_WIND BOM_PRES BOM_TNUM BOM_CI BOM_RMW BOM_R34_NE BOM_R34_SE BOM_R34_SW BOM_R34_NW BOM_R50_NE BOM_R50_SE BOM_R50_SW BOM_R50_NW BOM_R64_NE BOM_R64_SE BOM_R64_SW BOM_R64_NW BOM_ROCI BOM_POCI BOM_EYE BOM_POS_METHOD BOM_PRES_METHOD NADI_LAT NADI_LON NADI_CAT NADI_WIND NADI_PRES WELLINGTON_LAT WELLINGTON_LON WELLINGTON_WIND WELLINGTON_PRES DS824_LAT DS824_LON DS824_STAGE DS824_WIND DS824_PRES TD9636_LAT TD9636_LON TD9636_STAGE TD9636_WIND TD9636_PRES TD9635_LAT TD9635_LON TD9635_WIND TD9635_PRES TD9635_ROCI NEUMANN_LAT NEUMANN_LON NEUMANN_CLASS NEUMANN_WIND NEUMANN_PRES MLC_LAT MLC_LON MLC_CLASS MLC_WIND MLC_PRES USA_GUST BOM_GUST BOM_GUST_PER REUNION_GUST REUNION_GUST_PER USA_SEAHGT USA_SEARAD_NE USA_SEARAD_SE USA_SEARAD_SW USA_SEARAD_NW STORM_SPEED STORM_DIR
1923239N20116 1923 55 WP MM NOT_NAMED 1923-08-26 22:00:00 NR 20.0000 115.800 main 294 284 __________O___ -1 20.0000 115.800 4 4 345
1923239N20116 1923 55 WP MM NOT_NAMED 1923-08-27 00:00:00 NR 20.1377 115.766 main 284 259 __________P___ -1 20.1377 115.766 4 4 347
1923239N20116 1923 55 WP MM NOT_NAMED 1923-08-27 03:00:00 NR 20.3426 115.715 main 259 238 __________P___ -1 20.3426 115.715 4 4 347
1923239N20116 1923 55 WP MM NOT_NAMED 1923-08-27 06:00:00 NR 20.5433 115.665 main 238 213 __________P___ -1 20.5433 115.665 4 4 347
1923239N20116 1923 55 WP MM NOT_NAMED 1923-08-27 09:00:00 NR 20.7373 115.616 main 213 203 __________P___ -1 20.7373 115.616 4 4 348
1923239N20116 1923 55 WP MM NOT_NAMED 1923-08-27 10:00:00 NR 20.8000 115.600 main 203 192 __________O___ -1 20.8000 115.600 4 4 349
1923239N20116 1923 55 WP MM NOT_NAMED 1923-08-27 12:00:00 NR 20.9233 115.569 main 192 168 __________P___ -1 20.9233 115.569 4 4 346
1923239N20116 1923 55 WP MM NOT_NAMED 1923-08-27 15:00:00 NR 21.1140 115.515 main 168 143 __________P___ -1 21.1140 115.515 4 4 344
1923239N20116 1923 55 WP MM NOT_NAMED 1923-08-27 18:00:00 NR 21.3312 115.444 main 143 108 __________P___ -1 21.3312 115.444 4 5 341
1923239N20116 1923 55 WP MM NOT_NAMED 1923-08-27 21:00:00 NR 21.5969 115.343 main 108 98 __________P___ -1 21.5969 115.343 4 6 340
1923239N20116 1923 55 WP MM NOT_NAMED 1923-08-27 22:00:00 NR 21.7000 115.300 main 98 73 __________O___ -1 21.7000 115.300 4 7 340
1923239N20116 1923 55 WP MM NOT_NAMED 1923-08-28 00:00:00 NR 21.9429 115.201 main 73 15 __________P___ -1 21.9429 115.201 4 9 339
1923239N20116 1923 55 WP MM NOT_NAMED 1923-08-28 03:00:00 NR 22.3579 115.020 main 15 0 __________P___ -1 22.3579 115.020 4 9 337
1923239N20116 1923 55 WP MM NOT_NAMED 1923-08-28 06:00:00 NR 22.8057 114.810 main 0 0 __________P___ -1 22.8057 114.810 4 10 336
1923239N20116 1923 55 WP MM NOT_NAMED 1923-08-28 09:00:00 NR 23.2552 114.580 main 0 0 __________P___ -1 23.2552 114.580 4 10 334
1923239N20116 1923 55 WP MM NOT_NAMED 1923-08-28 10:00:00 NR 23.4000 114.500 main 0 0 __________O___ -1 23.4000 114.500 2 10 332
1923239N20116 1923 55 WP MM NOT_NAMED 1923-08-28 12:00:00 NR 23.6772 114.339 main 0 0 __________P___ -1 23.6772 114.339 2 9 331
1923239N20116 1923 55 WP MM NOT_NAMED 1923-08-28 15:00:00 NR 24.0662 114.092 main 0 0 __________P___ -1 24.0662 114.092 2 9 329
1923239N20116 1923 55 WP MM NOT_NAMED 1923-08-28 18:00:00 NR 24.4319 113.840 main 0 0 __________P___ -1 24.4319 113.840 2 9 327
1923239N20116 1923 55 WP MM NOT_NAMED 1923-08-28 21:00:00 NR 24.7840 113.585 main 0 0 __________P___ -1 24.7840 113.585 2 8 327
1923239N20116 1923 55 WP MM NOT_NAMED 1923-08-28 22:00:00 NR 24.9000 113.500 main 0 __________O___ -1 24.9000 113.500 2 8 324

デジタル台風データ・検索

IBTrACS Databaseについて

本データベースは、米国NOAAが公開する1842年以降の世界の熱帯低気圧のベストトラックデータアーカイブInternational Best Track Archive for Climate Stewardship (IBTrACS)を、ウェブで閲覧しやすい形式に変換したものです。

最終更新日:2021-11-26